createdAt,value
2018-12-15T00:00:38.811Z,29.90
2018-12-15T00:01:38.870Z,41.80
2018-12-15T00:02:38.809Z,76.70
2018-12-15T00:03:38.794Z,70.30
2018-12-15T00:04:38.772Z,103.50
2018-12-15T00:05:38.796Z,53.20
2018-12-15T00:06:38.753Z,57.30
2018-12-15T00:07:38.764Z,45.00
2018-12-15T00:08:38.736Z,65.30
2018-12-15T00:09:38.721Z,50.70
2018-12-15T00:10:38.804Z,42.90
2018-12-15T00:11:38.767Z,33.80
2018-12-15T00:12:38.709Z,33.20
2018-12-15T00:13:38.757Z,27.60
2018-12-15T00:14:38.760Z,37.80
2018-12-15T00:15:38.651Z,37.10
2018-12-15T00:16:38.638Z,29.60
2018-12-15T00:17:38.661Z,36.00
2018-12-15T00:18:38.624Z,44.70
2018-12-15T00:19:38.718Z,40.30
2018-12-15T00:20:38.602Z,39.20
2018-12-15T00:21:38.610Z,35.90
2018-12-15T00:22:38.597Z,53.30
2018-12-15T00:23:38.575Z,39.00
2018-12-15T00:24:38.589Z,47.40
2018-12-15T00:25:38.549Z,54.50
2018-12-15T00:26:38.548Z,59.20
2018-12-15T00:27:38.552Z,58.00
2018-12-15T00:28:38.519Z,59.40
2018-12-15T00:29:38.501Z,31.10
2018-12-15T00:30:38.495Z,47.60
2018-12-15T00:31:38.483Z,44.10
2018-12-15T00:32:38.493Z,63.30
2018-12-15T00:33:38.463Z,59.60
2018-12-15T00:34:38.479Z,57.50
2018-12-15T00:35:38.439Z,76.80
2018-12-15T00:36:38.427Z,64.00
2018-12-15T00:37:38.435Z,92.20
2018-12-15T00:38:38.427Z,92.80
2018-12-15T00:39:38.427Z,82.70
2018-12-15T00:40:38.383Z,82.90
2018-12-15T00:41:38.376Z,89.30
2018-12-15T00:42:38.374Z,110.10
2018-12-15T00:43:38.378Z,79.80
2018-12-15T00:44:38.377Z,98.30
2018-12-15T00:45:38.337Z,60.10
2018-12-15T00:46:38.317Z,49.90
2018-12-15T00:47:38.306Z,59.80
2018-12-15T00:48:38.300Z,67.10
2018-12-15T00:49:38.299Z,63.20
2018-12-15T00:50:38.307Z,65.50
2018-12-15T00:51:38.307Z,60.20
2018-12-15T00:52:38.338Z,88.90
2018-12-15T00:53:38.264Z,69.00
2018-12-15T00:54:38.275Z,95.90
2018-12-15T00:55:38.246Z,108.30
2018-12-15T00:56:38.222Z,65.20
2018-12-15T00:57:38.238Z,62.10
2018-12-15T00:58:38.195Z,85.00
2018-12-15T00:59:38.219Z,81.70
2018-12-15T01:00:38.169Z,55.80
2018-12-15T01:01:38.164Z,48.50
2018-12-15T01:02:38.181Z,45.00
2018-12-15T01:03:38.146Z,40.00
2018-12-15T01:04:38.144Z,41.90
2018-12-15T01:05:38.128Z,51.00
2018-12-15T01:06:38.108Z,44.60
2018-12-15T01:07:38.127Z,62.30
2018-12-15T01:08:38.104Z,58.70
2018-12-15T01:09:38.073Z,44.30
2018-12-15T01:10:38.075Z,48.90
2018-12-15T01:11:38.072Z,31.10
2018-12-15T01:12:38.065Z,37.70
2018-12-15T01:13:38.031Z,39.00
2018-12-15T01:14:38.028Z,33.90
2018-12-15T01:15:38.020Z,40.80
2018-12-15T01:16:38.011Z,56.60
2018-12-15T01:17:38.022Z,61.80
2018-12-15T01:18:38.007Z,57.10
2018-12-15T01:19:37.970Z,102.80
2018-12-15T01:20:37.957Z,57.20
2018-12-15T01:21:37.944Z,29.90
2018-12-15T01:22:37.977Z,56.30
2018-12-15T01:23:37.931Z,61.30
2018-12-15T01:24:37.923Z,72.80
2018-12-15T01:25:37.909Z,75.60
2018-12-15T01:26:37.899Z,78.50
2018-12-15T01:27:37.900Z,70.80
2018-12-15T01:28:37.902Z,64.80
2018-12-15T01:29:37.873Z,65.50
2018-12-15T01:30:37.858Z,41.30
2018-12-15T01:31:37.849Z,54.20
2018-12-15T01:32:37.833Z,46.40
2018-12-15T01:33:37.879Z,46.30
2018-12-15T01:34:37.816Z,53.00
2018-12-15T01:35:37.807Z,46.30
2018-12-15T01:36:37.791Z,39.10
2018-12-15T01:37:37.792Z,46.90
2018-12-15T01:38:37.772Z,40.80
2018-12-15T01:39:37.783Z,26.20
2018-12-15T01:40:37.746Z,38.20
2018-12-15T01:41:37.737Z,38.00
2018-12-15T01:42:37.737Z,34.40
2018-12-15T01:43:37.720Z,57.60
2018-12-15T01:44:37.724Z,54.20
2018-12-15T01:45:37.693Z,63.60
2018-12-15T01:46:37.695Z,72.40
2018-12-15T01:47:37.693Z,73.40
2018-12-15T01:48:37.669Z,62.30
2018-12-15T01:49:37.693Z,83.60
2018-12-15T01:50:37.636Z,72.60
2018-12-15T01:51:37.625Z,79.80
2018-12-15T01:52:37.621Z,62.80
2018-12-15T01:53:37.632Z,58.00
2018-12-15T01:54:37.603Z,60.10
2018-12-15T01:55:37.626Z,55.20
2018-12-15T01:56:37.578Z,52.60
2018-12-15T01:57:37.568Z,54.10
2018-12-15T01:58:37.553Z,46.00
2018-12-15T01:59:37.559Z,48.50
2018-12-15T02:00:37.535Z,33.70
2018-12-15T02:01:37.524Z,64.90
2018-12-15T02:02:37.503Z,38.30
2018-12-15T02:03:37.493Z,40.70
2018-12-15T02:04:37.514Z,33.10
2018-12-15T02:05:37.475Z,54.70
2018-12-15T02:06:37.468Z,68.20
2018-12-15T02:07:37.456Z,63.10
2018-12-15T02:08:37.458Z,99.40
2018-12-15T02:09:37.435Z,83.10
2018-12-15T02:10:37.439Z,57.40
2018-12-15T02:11:37.408Z,66.00
2018-12-15T02:12:37.396Z,51.00
2018-12-15T02:13:37.388Z,43.60
2018-12-15T02:14:37.382Z,53.90
2018-12-15T02:15:37.413Z,43.90
2018-12-15T02:16:37.354Z,56.70
2018-12-15T02:17:37.345Z,48.80
2018-12-15T02:18:37.341Z,43.40
2018-12-15T02:19:37.334Z,37.20
2018-12-15T02:20:37.318Z,42.10
2018-12-15T02:21:37.328Z,49.60
2018-12-15T02:22:37.291Z,45.20
2018-12-15T02:23:37.281Z,40.90
2018-12-15T02:24:37.305Z,44.70
2018-12-15T02:25:37.259Z,33.50
2018-12-15T02:26:37.275Z,13.50
2018-12-15T02:27:37.247Z,10.40
2018-12-15T02:28:37.239Z,12.30
2018-12-15T02:29:37.242Z,12.10
2018-12-15T02:30:37.237Z,10.70
2018-12-15T02:31:37.219Z,9.40
2018-12-15T02:32:37.225Z,9.60
2018-12-15T02:33:37.203Z,11.50
2018-12-15T02:34:37.160Z,15.10
2018-12-15T02:35:37.160Z,12.50
2018-12-15T02:36:37.140Z,13.90
2018-12-15T02:37:37.135Z,16.70
2018-12-15T02:38:37.166Z,17.00
2018-12-15T02:39:37.118Z,14.10
2018-12-15T02:40:37.105Z,11.60
2018-12-15T02:41:37.093Z,12.10
2018-12-15T02:42:37.077Z,10.00
2018-12-15T02:43:37.093Z,12.70
2018-12-15T02:44:37.084Z,13.30
2018-12-15T02:45:37.044Z,15.00
2018-12-15T02:46:37.040Z,12.00
2018-12-15T02:47:41.415Z,12.20
2018-12-15T02:48:37.014Z,14.10
2018-12-15T02:49:37.012Z,11.40
2018-12-15T02:50:37.027Z,15.60
2018-12-15T02:51:36.987Z,12.10
2018-12-15T02:52:36.976Z,15.40
2018-12-15T02:53:36.966Z,12.40
2018-12-15T02:54:36.950Z,17.00
2018-12-15T02:55:36.938Z,13.40
2018-12-15T02:56:36.952Z,11.30
2018-12-15T02:57:36.917Z,11.80
2018-12-15T02:58:36.910Z,9.80
2018-12-15T02:59:36.900Z,14.30
2018-12-15T03:00:36.909Z,10.70
2018-12-15T03:01:36.881Z,10.00
2018-12-15T03:02:36.865Z,8.70
2018-12-15T03:03:36.854Z,10.00
2018-12-15T03:04:36.869Z,10.60
2018-12-15T03:05:36.838Z,10.80
2018-12-15T03:06:36.851Z,10.20
2018-12-15T03:07:36.809Z,11.60
2018-12-15T03:08:36.797Z,7.20
2018-12-15T03:09:36.788Z,10.40
2018-12-15T03:10:36.783Z,10.00
2018-12-15T03:11:36.770Z,10.30
2018-12-15T03:12:36.782Z,9.90
2018-12-15T03:13:36.949Z,6.50
2018-12-15T03:14:36.734Z,7.80
2018-12-15T03:15:36.723Z,8.60
2018-12-15T03:16:36.712Z,8.10
2018-12-15T03:17:36.723Z,7.30
2018-12-15T03:18:36.708Z,5.70
2018-12-15T03:19:36.684Z,10.00
2018-12-15T03:20:36.668Z,5.90
2018-12-15T03:21:36.657Z,7.80
2018-12-15T03:22:36.698Z,5.90
2018-12-15T03:23:36.640Z,10.70
2018-12-15T03:24:36.630Z,6.70
2018-12-15T03:25:36.621Z,8.90
2018-12-15T03:26:36.608Z,8.40
2018-12-15T03:27:36.598Z,7.90
2018-12-15T03:28:36.605Z,10.10
2018-12-15T03:29:36.572Z,9.70
2018-12-15T03:30:36.570Z,9.20
2018-12-15T03:31:36.557Z,6.20
2018-12-15T03:32:36.588Z,7.70
2018-12-15T03:33:36.539Z,6.90
2018-12-15T03:34:36.516Z,8.00
2018-12-15T03:35:36.511Z,11.50
2018-12-15T03:36:36.502Z,9.30
2018-12-15T03:37:36.498Z,8.80
2018-12-15T03:38:36.503Z,8.60
2018-12-15T03:39:36.486Z,9.20
2018-12-15T03:40:36.456Z,6.60
2018-12-15T03:41:36.443Z,7.30
2018-12-15T03:42:36.442Z,9.30
2018-12-15T03:43:36.430Z,8.50
2018-12-15T03:44:36.439Z,12.40
2018-12-15T03:45:36.409Z,8.60
2018-12-15T03:46:36.397Z,10.20
2018-12-15T03:47:36.381Z,10.00
2018-12-15T03:48:36.389Z,12.90
2018-12-15T03:49:36.384Z,9.60
2018-12-15T03:50:36.353Z,11.40
2018-12-15T03:51:36.341Z,9.40
2018-12-15T03:52:36.327Z,10.50
2018-12-15T03:53:36.318Z,10.60
2018-12-15T03:54:36.332Z,9.50
2018-12-15T03:55:36.307Z,9.10
2018-12-15T03:56:36.292Z,9.30
2018-12-15T03:57:36.279Z,9.30
2018-12-15T03:58:36.261Z,10.40
2018-12-15T03:59:36.274Z,8.20
2018-12-15T04:00:36.245Z,8.30
2018-12-15T04:01:36.233Z,8.80
2018-12-15T04:02:36.225Z,9.60
2018-12-15T04:03:36.219Z,6.30
2018-12-15T04:04:36.230Z,8.90
2018-12-15T04:05:36.193Z,10.00
2018-12-15T04:06:36.175Z,8.30
2018-12-15T04:07:36.166Z,8.70
2018-12-15T04:08:36.161Z,8.10
2018-12-15T04:09:36.181Z,9.20
2018-12-15T04:10:36.136Z,8.90
2018-12-15T04:11:36.122Z,9.20
2018-12-15T04:12:36.112Z,7.90
2018-12-15T04:13:36.102Z,7.90
2018-12-15T04:14:36.098Z,8.90
2018-12-15T04:15:36.106Z,10.30
2018-12-15T04:16:36.074Z,10.40
2018-12-15T04:17:36.066Z,10.60
2018-12-15T04:18:36.049Z,10.60
2018-12-15T04:19:36.039Z,7.50
2018-12-15T04:20:36.048Z,9.30
2018-12-15T04:21:36.016Z,8.50
2018-12-15T04:22:36.015Z,7.90
2018-12-15T04:23:36.000Z,7.80
2018-12-15T04:24:35.988Z,8.10
2018-12-15T04:25:35.997Z,9.90
2018-12-15T04:26:35.968Z,8.80
2018-12-15T04:27:35.957Z,9.80
2018-12-15T04:28:35.946Z,8.30
2018-12-15T04:29:35.936Z,9.40
2018-12-15T04:30:35.941Z,8.60
2018-12-15T04:31:35.933Z,9.60
2018-12-15T04:32:35.896Z,7.30
2018-12-15T04:33:35.888Z,10.60
2018-12-15T04:34:35.882Z,9.00
2018-12-15T04:35:35.874Z,7.20
2018-12-15T04:36:35.888Z,10.00
2018-12-15T04:37:35.854Z,8.90
2018-12-15T04:38:35.839Z,9.40
2018-12-15T04:39:35.823Z,7.70
2018-12-15T04:40:35.818Z,8.90
2018-12-15T04:41:35.830Z,8.80
2018-12-15T04:42:35.789Z,9.20
2018-12-15T04:43:35.803Z,9.20
2018-12-15T04:44:35.772Z,8.80
2018-12-15T04:45:35.778Z,9.00
2018-12-15T04:46:35.787Z,10.00
2018-12-15T04:47:35.742Z,9.50
2018-12-15T04:48:35.745Z,8.00
2018-12-15T04:49:35.721Z,8.60
2018-12-15T04:50:35.736Z,8.60
2018-12-15T04:51:35.723Z,9.40
2018-12-15T04:52:35.684Z,10.90
2018-12-15T04:53:35.676Z,7.80
2018-12-15T04:54:35.669Z,10.60
2018-12-15T04:55:35.659Z,11.80
2018-12-15T04:56:35.639Z,11.70
2018-12-15T04:57:35.654Z,13.10
2018-12-15T04:58:35.625Z,10.90
2018-12-15T04:59:35.614Z,12.10
2018-12-15T05:00:35.607Z,10.90
2018-12-15T05:01:35.594Z,9.90
2018-12-15T05:02:35.602Z,9.70
2018-12-15T05:03:35.568Z,8.60
2018-12-15T05:04:35.557Z,9.30
2018-12-15T05:05:35.546Z,9.90
2018-12-15T05:06:35.540Z,10.90
2018-12-15T05:07:35.550Z,10.00
2018-12-15T05:08:35.518Z,7.90
2018-12-15T05:09:35.507Z,8.10
2018-12-15T05:10:35.493Z,8.80
2018-12-15T05:11:35.480Z,9.40
2018-12-15T05:12:35.497Z,8.60
2018-12-15T05:13:35.465Z,10.40
2018-12-15T05:14:35.449Z,9.70
2018-12-15T05:15:35.458Z,9.60
2018-12-15T05:16:35.425Z,9.80
2018-12-15T05:17:35.431Z,10.00
2018-12-15T05:18:35.411Z,9.20
2018-12-15T05:19:35.399Z,8.70
2018-12-15T05:20:35.416Z,10.60
2018-12-15T05:21:35.384Z,10.90
2018-12-15T05:22:35.363Z,10.10
2018-12-15T05:23:35.351Z,9.60
2018-12-15T05:24:35.342Z,8.10
2018-12-15T05:25:35.353Z,7.80
2018-12-15T05:26:35.328Z,8.30
2018-12-15T05:27:35.312Z,9.00
2018-12-15T05:28:35.299Z,9.70
2018-12-15T05:29:35.291Z,8.40
2018-12-15T05:30:35.303Z,10.30
2018-12-15T05:31:35.270Z,8.20
2018-12-15T05:32:35.260Z,10.60
2018-12-15T05:33:35.251Z,11.00
2018-12-15T05:34:35.233Z,10.50
2018-12-15T05:35:35.244Z,8.80
2018-12-15T05:36:35.215Z,8.30
2018-12-15T05:37:35.200Z,9.70
2018-12-15T05:38:35.197Z,8.20
2018-12-15T05:39:35.187Z,9.90
2018-12-15T05:40:35.174Z,8.50
2018-12-15T05:41:35.192Z,9.00
2018-12-15T05:42:35.150Z,8.60
2018-12-15T05:43:35.136Z,8.10
2018-12-15T05:44:35.134Z,9.80
2018-12-15T05:45:35.120Z,8.80
2018-12-15T05:46:35.143Z,10.70
2018-12-15T05:47:35.094Z,9.40
2018-12-15T05:48:35.084Z,9.00
2018-12-15T05:49:35.141Z,12.00
2018-12-15T05:50:35.068Z,7.80
2018-12-15T05:51:35.059Z,10.80
2018-12-15T05:52:35.075Z,9.80
2018-12-15T05:53:35.036Z,10.00
2018-12-15T05:54:35.022Z,13.40
2018-12-15T05:55:35.012Z,11.10
2018-12-15T05:56:34.999Z,9.10
2018-12-15T05:57:35.019Z,9.70
2018-12-15T05:58:34.984Z,9.00
2018-12-15T05:59:34.975Z,9.20
2018-12-15T06:00:34.955Z,10.70
2018-12-15T06:01:34.947Z,10.10
2018-12-15T06:02:34.946Z,10.70
2018-12-15T06:03:34.951Z,12.10
2018-12-15T06:04:34.921Z,12.20
2018-12-15T06:05:34.908Z,8.40
2018-12-15T06:06:34.890Z,10.20
2018-12-15T06:07:34.882Z,9.70
2018-12-15T06:08:34.898Z,8.90
2018-12-15T06:09:34.860Z,9.70
2018-12-15T06:10:34.856Z,10.10
2018-12-15T06:11:34.844Z,11.10
2018-12-15T06:12:34.832Z,8.90
2018-12-15T06:13:34.824Z,8.50
2018-12-15T06:14:34.826Z,9.70
2018-12-15T06:15:34.796Z,10.70
2018-12-15T06:16:34.790Z,10.20
2018-12-15T06:17:34.782Z,12.30
2018-12-15T06:18:34.784Z,9.00
2018-12-15T06:19:34.787Z,10.30
2018-12-15T06:20:34.747Z,10.70
2018-12-15T06:21:34.736Z,12.40
2018-12-15T06:22:34.729Z,11.00
2018-12-15T06:23:34.716Z,11.20
2018-12-15T06:24:34.707Z,9.90
2018-12-15T06:25:34.739Z,12.60
2018-12-15T06:26:34.678Z,9.70
2018-12-15T06:27:34.677Z,10.70
2018-12-15T06:28:34.657Z,10.60
2018-12-15T06:29:34.649Z,11.40
2018-12-15T06:30:34.766Z,9.60
2018-12-15T06:31:34.628Z,12.20
2018-12-15T06:32:34.614Z,10.90
2018-12-15T06:33:34.602Z,10.40
2018-12-15T06:34:34.598Z,8.80
2018-12-15T06:35:34.609Z,11.60
2018-12-15T06:36:34.608Z,10.00
2018-12-15T06:37:34.570Z,9.60
2018-12-15T06:38:34.557Z,10.60
2018-12-15T06:39:34.540Z,11.40
2018-12-15T06:40:34.529Z,10.30
2018-12-15T06:41:34.518Z,10.10
2018-12-15T06:42:34.546Z,10.70
2018-12-15T06:43:34.500Z,8.70
2018-12-15T06:44:34.490Z,11.60
2018-12-15T06:45:34.485Z,10.40
2018-12-15T06:46:34.471Z,10.80
2018-12-15T06:47:34.465Z,12.00
2018-12-15T06:48:38.153Z,9.50
2018-12-15T06:49:34.440Z,9.40
2018-12-15T06:50:34.422Z,14.00
2018-12-15T06:51:34.410Z,10.60
2018-12-15T06:52:34.399Z,12.80
2018-12-15T06:53:34.411Z,8.70
2018-12-15T06:54:34.385Z,11.20
2018-12-15T06:55:34.378Z,11.60
2018-12-15T06:56:34.368Z,9.70
2018-12-15T06:57:34.355Z,10.40
2018-12-15T06:58:34.373Z,10.00
2018-12-15T06:59:34.326Z,12.40
2018-12-15T07:00:34.315Z,12.00
2018-12-15T07:01:34.306Z,15.00
2018-12-15T07:02:34.300Z,13.60
2018-12-15T07:03:34.289Z,11.50
2018-12-15T07:04:34.296Z,15.80
2018-12-15T07:05:34.287Z,12.30
2018-12-15T07:06:34.255Z,10.60
2018-12-15T07:07:34.270Z,11.30
2018-12-15T07:08:34.236Z,11.20
2018-12-15T07:09:34.233Z,10.40
2018-12-15T07:10:34.234Z,12.70
2018-12-15T07:11:34.197Z,11.50
2018-12-15T07:12:34.185Z,14.00
2018-12-15T07:13:34.182Z,12.30
2018-12-15T07:14:34.170Z,11.40
2018-12-15T07:15:34.195Z,11.20
2018-12-15T07:16:34.151Z,12.20
2018-12-15T07:17:34.143Z,10.80
2018-12-15T07:18:34.127Z,12.20
2018-12-15T07:19:34.114Z,13.30
2018-12-15T07:20:34.130Z,12.10
2018-12-15T07:21:34.104Z,10.00
2018-12-15T07:22:34.081Z,11.50
2018-12-15T07:23:34.072Z,15.40
2018-12-15T07:24:34.061Z,9.90
2018-12-15T07:25:34.078Z,11.80
2018-12-15T07:26:34.044Z,13.30
2018-12-15T07:27:34.033Z,13.00
2018-12-15T07:28:34.031Z,11.80
2018-12-15T07:29:34.016Z,14.20
2018-12-15T07:30:33.998Z,13.60
2018-12-15T07:31:34.010Z,12.40
2018-12-15T07:32:33.974Z,11.60
2018-12-15T07:33:33.962Z,13.50
2018-12-15T07:34:33.961Z,12.70
2018-12-15T07:35:33.989Z,14.30
2018-12-15T07:36:33.931Z,15.50
2018-12-15T07:37:33.994Z,16.20
2018-12-15T07:38:33.914Z,12.10
2018-12-15T07:39:33.906Z,13.60
2018-12-15T07:40:33.893Z,14.00
2018-12-15T07:41:33.904Z,14.70
2018-12-15T07:42:33.872Z,11.40
2018-12-15T07:43:33.855Z,12.60
2018-12-15T07:44:33.879Z,13.40
2018-12-15T07:45:33.837Z,16.60
2018-12-15T07:46:33.879Z,18.60
2018-12-15T07:47:33.829Z,15.80
2018-12-15T07:48:33.895Z,14.90
2018-12-15T07:49:33.796Z,12.50
2018-12-15T07:50:33.781Z,16.40
2018-12-15T07:51:33.785Z,18.60
2018-12-15T07:52:33.794Z,18.40
2018-12-15T07:53:33.834Z,16.40
2018-12-15T07:54:34.820Z,18.00
2018-12-15T07:55:33.735Z,18.70
2018-12-15T07:56:33.746Z,17.60
2018-12-15T07:57:33.707Z,16.50
2018-12-15T07:58:33.838Z,20.30
2018-12-15T07:59:33.694Z,23.30
2018-12-15T08:00:33.679Z,27.50
2018-12-15T08:01:33.671Z,23.00
2018-12-15T08:02:33.653Z,23.10
2018-12-15T08:03:33.666Z,17.90
2018-12-15T08:04:33.641Z,17.10
2018-12-15T08:05:33.622Z,19.50
2018-12-15T08:06:33.679Z,15.50
2018-12-15T08:07:33.608Z,14.90
2018-12-15T08:08:42.177Z,16.00
2018-12-15T08:09:33.583Z,16.00
2018-12-15T08:10:33.574Z,15.80
2018-12-15T08:11:33.561Z,14.40
2018-12-15T08:12:33.546Z,14.80
2018-12-15T08:13:33.565Z,13.30
2018-12-15T08:14:33.524Z,11.80
2018-12-15T08:15:33.513Z,14.80
2018-12-15T08:16:33.511Z,13.70
2018-12-15T08:17:33.520Z,10.40
2018-12-15T08:18:33.520Z,12.50
2018-12-15T08:19:33.496Z,14.00
2018-12-15T08:20:33.514Z,12.30
2018-12-15T08:21:33.458Z,11.00
2018-12-15T08:22:33.447Z,11.60
2018-12-15T08:23:33.460Z,12.50
2018-12-15T08:24:33.448Z,11.60
2018-12-15T08:25:33.411Z,12.20
2018-12-15T08:26:33.396Z,15.00
2018-12-15T08:27:33.389Z,11.90
2018-12-15T08:28:33.403Z,13.20
2018-12-15T08:29:33.370Z,14.60
2018-12-15T08:30:33.358Z,12.20
2018-12-15T08:31:33.368Z,13.10
2018-12-15T08:32:33.379Z,11.50
2018-12-15T08:33:33.350Z,11.50
2018-12-15T08:34:33.324Z,13.70
2018-12-15T08:35:33.318Z,11.60
2018-12-15T08:36:33.303Z,13.50
2018-12-15T08:37:33.288Z,14.60
2018-12-15T08:38:33.292Z,11.50
2018-12-15T08:39:33.279Z,15.80
2018-12-15T08:40:33.265Z,9.50
2018-12-15T08:41:33.243Z,11.50
2018-12-15T08:42:33.231Z,11.40
2018-12-15T08:43:33.242Z,11.80
2018-12-15T08:44:33.354Z,11.30
2018-12-15T08:45:33.316Z,9.00
2018-12-15T08:46:33.508Z,10.00
2018-12-15T08:47:33.352Z,10.30
2018-12-15T08:48:33.220Z,11.60
2018-12-15T08:49:33.161Z,11.30
2018-12-15T08:50:33.162Z,12.20
2018-12-15T08:51:33.159Z,10.70
2018-12-15T08:52:33.150Z,12.00
2018-12-15T08:53:33.108Z,9.60
2018-12-15T08:54:33.123Z,12.90
2018-12-15T08:55:33.153Z,9.50
2018-12-15T08:56:33.114Z,9.40
2018-12-15T08:57:33.089Z,9.00
2018-12-15T08:58:33.061Z,12.40
2018-12-15T08:59:33.052Z,10.00
2018-12-15T09:00:33.049Z,11.80
2018-12-15T09:01:33.085Z,10.00
2018-12-15T09:02:33.019Z,12.80
2018-12-15T09:03:33.018Z,11.40
2018-12-15T09:04:33.005Z,11.50
2018-12-15T09:05:32.988Z,9.80
2018-12-15T09:06:32.984Z,11.70
2018-12-15T09:07:32.993Z,10.20
2018-12-15T09:08:32.969Z,12.20
2018-12-15T09:09:32.955Z,10.50
2018-12-15T09:10:32.938Z,9.80
2018-12-15T09:11:32.928Z,14.10
2018-12-15T09:12:33.026Z,11.60
2018-12-15T09:13:32.912Z,8.30
2018-12-15T09:14:32.923Z,8.70
2018-12-15T09:15:32.883Z,8.60
2018-12-15T09:16:32.865Z,12.00
2018-12-15T09:17:32.876Z,9.80
2018-12-15T09:18:32.880Z,10.00
2018-12-15T09:19:32.879Z,9.80
2018-12-15T09:20:32.854Z,11.40
2018-12-15T09:21:32.835Z,9.80
2018-12-15T09:22:32.815Z,11.30
2018-12-15T09:23:32.882Z,11.70
2018-12-15T09:24:32.786Z,11.20
2018-12-15T09:25:32.781Z,14.20
2018-12-15T09:26:32.771Z,15.00
2018-12-15T09:27:32.757Z,11.60
2018-12-15T09:28:32.757Z,13.70
2018-12-15T09:29:32.758Z,14.70
2018-12-15T09:30:32.743Z,16.60
2018-12-15T09:31:32.713Z,12.90
2018-12-15T09:32:32.704Z,14.20
2018-12-15T09:33:32.702Z,13.50
2018-12-15T09:34:32.684Z,11.50
2018-12-15T09:35:32.692Z,12.80
2018-12-15T09:36:32.655Z,17.10
2018-12-15T09:37:32.651Z,20.70
2018-12-15T09:38:32.633Z,18.40
2018-12-15T09:39:32.626Z,19.60
2018-12-15T09:40:32.637Z,22.60
2018-12-15T09:41:32.608Z,14.30
2018-12-15T09:42:32.588Z,19.30
2018-12-15T09:43:32.617Z,13.40
2018-12-15T09:44:32.577Z,16.20
2018-12-15T09:45:32.565Z,20.50
2018-12-15T09:46:32.593Z,20.80
2018-12-15T09:47:32.543Z,16.20
2018-12-15T09:48:32.526Z,13.90
2018-12-15T09:49:32.517Z,11.80
2018-12-15T09:50:32.508Z,15.40
2018-12-15T09:51:32.496Z,13.80
2018-12-15T09:52:32.514Z,14.60
2018-12-15T09:53:32.477Z,14.60
2018-12-15T09:54:32.468Z,16.10
2018-12-15T09:55:32.468Z,12.10
2018-12-15T09:56:32.441Z,14.90
2018-12-15T09:57:32.464Z,16.90
2018-12-15T09:58:32.439Z,14.70
2018-12-15T09:59:32.414Z,15.20
2018-12-15T10:00:32.401Z,14.70
2018-12-15T10:01:32.410Z,14.50
2018-12-15T10:02:32.374Z,18.40
2018-12-15T10:03:32.395Z,14.50
2018-12-15T10:04:32.395Z,13.30
2018-12-15T10:05:32.351Z,14.50
2018-12-15T10:06:32.339Z,15.20
2018-12-15T10:07:32.335Z,16.00
2018-12-15T10:08:32.343Z,16.70
2018-12-15T10:09:32.302Z,15.70
2018-12-15T10:10:32.292Z,14.00
2018-12-15T10:11:32.296Z,13.80
2018-12-15T10:12:32.301Z,13.80
2018-12-15T10:13:32.287Z,14.60
2018-12-15T10:14:32.289Z,13.30
2018-12-15T10:15:32.245Z,14.10
2018-12-15T10:16:32.239Z,16.80
2018-12-15T10:17:32.226Z,11.60
2018-12-15T10:18:32.247Z,12.20
2018-12-15T10:19:32.246Z,15.70
2018-12-15T10:20:32.188Z,14.50
2018-12-15T10:21:32.177Z,13.40
2018-12-15T10:22:32.164Z,13.60
2018-12-15T10:23:40.262Z,15.60
2018-12-15T10:24:32.150Z,15.70
2018-12-15T10:25:32.152Z,17.00
2018-12-15T10:26:32.120Z,14.40
2018-12-15T10:27:32.114Z,13.70
2018-12-15T10:28:32.105Z,11.60
2018-12-15T10:29:32.119Z,15.20
2018-12-15T10:30:32.079Z,17.40
2018-12-15T10:31:32.070Z,14.10
2018-12-15T10:32:32.098Z,15.40
2018-12-15T10:33:32.050Z,17.50
2018-12-15T10:34:32.044Z,23.30
2018-12-15T10:35:32.035Z,33.10
2018-12-15T10:36:32.026Z,13.70
2018-12-15T10:37:32.024Z,23.70
2018-12-15T10:38:32.025Z,20.90
2018-12-15T10:39:31.981Z,15.00
2018-12-15T10:40:31.972Z,29.50
2018-12-15T10:41:31.962Z,46.20
2018-12-15T10:42:31.958Z,34.30
2018-12-15T10:43:31.947Z,32.10
2018-12-15T10:44:31.960Z,34.90
2018-12-15T10:45:31.924Z,27.70
2018-12-15T10:46:31.913Z,28.70
2018-12-15T10:47:31.908Z,26.40
2018-12-15T10:48:31.893Z,49.30
2018-12-15T10:49:31.911Z,24.70
2018-12-15T10:50:31.868Z,12.80
2018-12-15T10:51:31.857Z,17.80
2018-12-15T10:52:31.844Z,20.20
2018-12-15T10:53:31.836Z,26.40
2018-12-15T10:54:31.835Z,22.20
2018-12-15T10:55:31.859Z,21.90
2018-12-15T10:56:31.820Z,29.10
2018-12-15T10:57:31.813Z,19.40
2018-12-15T10:58:31.798Z,22.40
2018-12-15T10:59:31.815Z,24.00
2018-12-15T11:00:31.795Z,24.70
2018-12-15T11:01:31.772Z,20.80
2018-12-15T11:02:31.741Z,18.70
2018-12-15T11:03:31.734Z,16.70
2018-12-15T11:04:31.728Z,19.40
2018-12-15T11:05:31.772Z,19.90
2018-12-15T11:06:31.703Z,19.90
2018-12-15T11:07:31.697Z,18.20
2018-12-15T11:08:31.721Z,13.70
2018-12-15T11:09:31.669Z,19.20
2018-12-15T11:10:31.690Z,18.10
2018-12-15T11:11:31.661Z,22.60
2018-12-15T11:12:31.648Z,21.20
2018-12-15T11:13:40.350Z,21.40
2018-12-15T11:14:31.612Z,20.30
2018-12-15T11:15:31.641Z,27.20
2018-12-15T11:16:31.619Z,23.10
2018-12-15T11:17:31.585Z,20.60
2018-12-15T11:18:31.577Z,20.80
2018-12-15T11:19:36.986Z,17.50
2018-12-15T11:20:32.576Z,17.80
2018-12-15T11:21:31.552Z,15.80
2018-12-15T11:22:31.536Z,20.20
2018-12-15T11:23:31.515Z,17.30
2018-12-15T11:24:31.515Z,20.50
2018-12-15T11:25:31.503Z,21.40
2018-12-15T11:26:31.514Z,20.20
2018-12-15T11:27:31.478Z,19.70
2018-12-15T11:28:31.463Z,20.40
2018-12-15T11:29:31.495Z,19.30
2018-12-15T11:30:31.464Z,23.60
2018-12-15T11:31:31.461Z,14.20
2018-12-15T11:32:31.453Z,21.90
2018-12-15T11:33:31.409Z,19.80
2018-12-15T11:34:31.400Z,34.30
2018-12-15T11:35:31.400Z,39.90
2018-12-15T11:36:31.433Z,32.90
2018-12-15T11:37:31.382Z,23.00
2018-12-15T11:38:31.463Z,30.00
2018-12-15T11:39:31.405Z,21.30
2018-12-15T11:40:31.335Z,25.30
2018-12-15T11:41:31.326Z,27.60
2018-12-15T11:42:31.335Z,22.80
2018-12-15T11:43:31.323Z,23.00
2018-12-15T11:44:31.301Z,25.30
2018-12-15T11:45:31.805Z,42.80
2018-12-15T11:46:31.272Z,33.30
2018-12-15T11:47:31.291Z,34.30
2018-12-15T11:48:31.262Z,30.20
2018-12-15T11:49:31.281Z,21.60
2018-12-15T11:50:31.234Z,32.50
2018-12-15T11:51:31.226Z,23.40
2018-12-15T11:52:31.207Z,24.20
2018-12-15T11:53:31.230Z,24.10
2018-12-15T11:54:31.199Z,21.90
2018-12-15T11:55:31.200Z,30.50
2018-12-15T11:56:31.164Z,31.50
2018-12-15T11:57:31.156Z,34.30
2018-12-15T11:58:31.195Z,31.20
2018-12-15T11:59:31.138Z,35.00
2018-12-15T12:00:31.129Z,23.10
2018-12-15T12:01:31.118Z,35.90
2018-12-15T12:02:32.002Z,23.90
2018-12-15T12:03:31.111Z,32.80
2018-12-15T12:04:31.111Z,29.50
2018-12-15T12:05:31.106Z,33.40
2018-12-15T12:06:31.065Z,39.10
2018-12-15T12:07:31.065Z,38.30
2018-12-15T12:08:31.040Z,19.80
2018-12-15T12:09:31.073Z,24.50
2018-12-15T12:10:31.049Z,28.60
2018-12-15T12:11:31.012Z,30.60
2018-12-15T12:12:31.898Z,27.90
2018-12-15T12:13:30.996Z,25.10
2018-12-15T12:14:31.016Z,36.30
2018-12-15T12:15:30.971Z,34.10
2018-12-15T12:16:30.956Z,35.10
2018-12-15T12:17:30.942Z,33.70
2018-12-15T12:18:30.938Z,24.50
2018-12-15T12:19:30.931Z,17.40
2018-12-15T12:20:30.935Z,27.10
2018-12-15T12:21:30.900Z,28.20
2018-12-15T12:22:30.893Z,23.00
2018-12-15T12:23:30.882Z,21.60
2018-12-15T12:24:30.874Z,19.70
2018-12-15T12:25:30.887Z,18.80
2018-12-15T12:26:30.885Z,17.40
2018-12-15T12:27:30.958Z,18.90
2018-12-15T12:28:30.834Z,17.80
2018-12-15T12:29:30.843Z,17.90
2018-12-15T12:30:30.805Z,19.00
2018-12-15T12:31:30.828Z,21.80
2018-12-15T12:32:30.790Z,17.70
2018-12-15T12:33:30.803Z,20.60
2018-12-15T12:34:30.766Z,17.90
2018-12-15T12:35:30.809Z,18.20
2018-12-15T12:36:30.755Z,19.40
2018-12-15T12:37:30.742Z,17.40
2018-12-15T12:38:30.749Z,15.00
2018-12-15T12:39:30.715Z,18.00
2018-12-15T12:40:30.697Z,21.00
2018-12-15T12:41:30.687Z,15.50
2018-12-15T12:42:30.676Z,19.50
2018-12-15T12:43:30.704Z,19.70
2018-12-15T12:44:30.662Z,15.60
2018-12-15T12:45:30.650Z,17.00
2018-12-15T12:46:30.663Z,20.10
2018-12-15T12:47:30.637Z,16.60
2018-12-15T12:48:30.630Z,15.50
2018-12-15T12:49:30.892Z,19.00
2018-12-15T12:50:30.598Z,18.40
2018-12-15T12:51:30.589Z,18.90
2018-12-15T12:52:30.635Z,21.20
2018-12-15T12:53:30.560Z,22.80
2018-12-15T12:54:30.549Z,37.70
2018-12-15T12:55:30.594Z,37.40
2018-12-15T12:56:30.537Z,33.50
2018-12-15T12:57:30.524Z,35.40